Algoma Mariner — CFN5517 — position and weather

sailwx.info

Track history (hours):
 
Tides and Currents Weather Stations Pressure Air Temp Water Temp Dewpoint Dewpoint Depression Visibility Wind Speed Wind Dir Waves Ship Positions

Algoma Mariner

Last reported at 2014-Aug-20 19:00 UTC. Time now 2014-Aug-21 06:22 UTC.
Position N 48°36' W 062°30'.

Length 225 m; draft 7.2 m.

Type: Cargo ship. MMSI: 316014050.

Wind from 320 at 10 knots

Waves 2.0 meters (7 feet)

Barometer 1018.0 mb
Air temperature 20.0 ° C
Visibility: greater than 10.8 NM
Water temperature 10.5 ° C

Date/timePositionNaut miles runAvg speedWind from/ knotsBaromVisibWave heightAir tempDewpointWater temp
2014-Aug-20 19:00N 48°36' W 062°30'14713.6 320 / 101018.010.8 2.020.0 10.5
2014-Aug-20 08:13N 49°22' W 066°03'913.8
2014-Aug-20 07:33N 49°19' W 066°17'1313.2
2014-Aug-20 06:33N 49°16' W 066°36'1313.0
2014-Aug-20 05:33N 49°12' W 066°55'1312.7
2014-Aug-20 04:33N 49°08' W 067°14'1212.3
2014-Aug-20 03:33N 49°04' W 067°31'1111.1
2014-Aug-20 02:33N 48°58' W 067°46'1111.0
2014-Aug-20 01:33N 48°53' W 068°00'1111.4
2014-Aug-20 00:33N 48°47' W 068°15'1312.5
2014-Aug-19 23:33N 48°40' W 068°31'1313.0
2014-Aug-19 22:33N 48°33' W 068°48'3612.1
2014-Aug-19 19:33N 48°11' W 069°31'1212.4
2014-Aug-19 18:33N 47°60' W 069°39'1716.7
2014-Aug-19 17:33N 47°45' W 069°52'1515.0
2014-Aug-19 16:33N 47°34' W 070°07'1312.8
2014-Aug-19 15:33N 47°26' W 070°22'1110.9
2014-Aug-19 14:33N 47°18' W 070°31'1212.5
2014-Aug-19 13:33N 47°07' W 070°42'1414.0
2014-Aug-19 12:33N 46°55' W 070°52'1514.7
2014-Aug-19 11:33N 46°49' W 071°12'1515.5
2014-Aug-19 10:33N 46°42' W 071°32'1413.9
2014-Aug-19 09:34N 46°41' W 071°52'1414.1
2014-Aug-19 08:33N 46°33' W 072°09'1313.1
2014-Aug-19 07:34N 46°24' W 072°23'1212.3
2014-Aug-19 06:33N 46°16' W 072°37'1413.9
2014-Aug-19 05:33N 46°10' W 072°55'1313.1
2014-Aug-19 04:34N 46°02' W 073°10'1313.2
2014-Aug-19 03:33N 45°50' W 073°17'0 0.1
2014-Aug-19 02:33N 45°50' W 073°17'0 0.0
2014-Aug-19 01:33N 45°50' W 073°17'0 0.0
2014-Aug-19 00:33N 45°50' W 073°17'0 0.0
2014-Aug-18 23:33N 45°50' W 073°17'0 0.0
2014-Aug-18 22:33N 45°50' W 073°17'0 0.0
2014-Aug-18 21:33N 45°50' W 073°17'0 0.0
2014-Aug-18 20:33N 45°50' W 073°17'0 0.0
2014-Aug-18 19:33N 45°50' W 073°17'0 0.0
2014-Aug-18 18:34N 45°50' W 073°17'0 0.0
2014-Aug-18 17:33N 45°50' W 073°17'0 0.0
2014-Aug-18 16:33N 45°50' W 073°17'0 0.0
2014-Aug-18 15:33N 45°50' W 073°17'0 0.0
2014-Aug-18 14:33N 45°50' W 073°17'0 0.1
2014-Aug-18 13:33N 45°50' W 073°17'6 6.3
2014-Aug-18 12:33N 45°56' W 073°13'9 9.4
2014-Aug-18 11:33N 46°04' W 073°06'9 9.4
2014-Aug-18 10:33N 46°10' W 072°56'1110.3
2014-Aug-18 09:28N 46°16' W 072°42'8 8.8
2014-Aug-18 08:33N 46°20' W 072°32'9 9.0
2014-Aug-18 07:33N 46°25' W 072°22'9 8.5
2014-Aug-18 06:33N 46°31' W 072°13'9 8.9
2014-Aug-18 05:33N 46°35' W 072°01'1010.2
2014-Aug-18 04:33N 46°40' W 071°48'1211.8
2014-Aug-18 03:33N 46°42' W 071°31'1313.6
2014-Aug-18 02:34N 46°47' W 071°13'1111.2
2014-Aug-18 01:33N 46°52' W 070°58'1414.2
2014-Aug-18 00:33N 47°03' W 070°45'7412.4
2014-Aug-17 18:33N 48°02' W 069°38'9 9.1
2014-Aug-17 17:33N 48°11' W 069°32'1110.7
2014-Aug-17 16:32N 48°20' W 069°23'2913.7
2014-Aug-17 14:23N 48°38' W 068°48'1113.2
2014-Aug-17 13:33N 48°43' W 068°34'1414.2
2014-Aug-17 12:33N 48°50' W 068°15'1414.5
2014-Aug-17 11:33N 48°58' W 067°57'1514.7
2014-Aug-17 10:33N 49°07' W 067°38'1515.5
2014-Aug-17 09:33N 49°15' W 067°18'1515.3
2014-Aug-17 08:33N 49°29' W 067°08'36 2.1
2014-Aug-16 15:31N 50°02' W 066°47'0 0.0
2014-Aug-16 14:19N 50°02' W 066°47'2 2.3
2014-Aug-16 13:30N 50°00' W 066°48'0 0.4
2014-Aug-16 12:33N 50°00' W 066°49'0 0.1
2014-Aug-16 11:33N 50°00' W 066°49'0 0.1
2014-Aug-16 10:33N 50°00' W 066°49'0 0.0
2014-Aug-16 09:33N 50°00' W 066°49'0 0.0
2014-Aug-16 08:33N 50°00' W 066°49'0 0.0
2014-Aug-16 07:30N 50°00' W 066°49'0 0.0
2014-Aug-16 06:24N 50°00' W 066°49'0 0.0
2014-Aug-16 05:33N 50°00' W 066°49'0 0.1
2014-Aug-16 04:33N 50°00' W 066°49'0 0.0
2014-Aug-16 03:33N 50°00' W 066°49'0 0.0
2014-Aug-16 02:33N 50°00' W 066°49'0 0.0
2014-Aug-16 01:33N 50°00' W 066°49'0 0.0
2014-Aug-16 00:33N 50°00' W 066°49'0 0.0
2014-Aug-15 23:33N 50°00' W 066°49'0 0.0
2014-Aug-15 22:33N 50°00' W 066°49'0 0.0
2014-Aug-15 21:33N 50°00' W 066°49'0 0.0
2014-Aug-15 20:33N 50°00' W 066°49'0 0.0
2014-Aug-15 19:33N 50°00' W 066°49'0 0.0
2014-Aug-15 18:33N 50°00' W 066°49'0 0.0
2014-Aug-15 16:27N 50°00' W 066°49'0 0.0
2014-Aug-15 15:33N 50°00' W 066°49'0 0.0
2014-Aug-15 14:33N 50°00' W 066°49'0 0.0
2014-Aug-15 12:33N 50°00' W 066°49'0 0.0
2014-Aug-15 11:33N 50°00' W 066°49'0 0.0
2014-Aug-15 10:34N 50°00' W 066°49'0 0.2
2014-Aug-15 09:33N 49°60' W 066°49'6 6.0
2014-Aug-15 08:32N 49°54' W 066°52'2211.1
2014-Aug-15 06:31N 49°33' W 067°05'1111.2
2014-Aug-15 05:32N 49°23' W 067°11'1212.4
2014-Aug-15 04:33N 49°12' W 067°18'1312.9
2014-Aug-15 03:34N 49°04' W 067°34'1413.6
2014-Aug-15 02:33N 48°57' W 067°52'1414.5
2014-Aug-15 01:33N 48°49' W 068°10'1414.5
2014-Aug-15 00:33N 48°41' W 068°29'1514.5
2014-Aug-14 23:33N 48°33' W 068°47'1413.4
2014-Aug-14 22:33N 48°26' W 069°04'2211.2
2014-Aug-14 20:33N 48°12' W 069°30'1010.3
2014-Aug-14 19:33N 48°02' W 069°37'1313.3
2014-Aug-14 18:33N 47°51' W 069°47'1615.5
2014-Aug-14 17:33N 47°39' W 070°00'1817.8
2014-Aug-14 16:31N 47°26' W 070°21'1818.4
2014-Aug-14 15:33N 47°12' W 070°36'1615.8
2014-Aug-14 14:33N 46°59' W 070°49'1212.1
2014-Aug-14 13:33N 46°51' W 071°03'8 8.0
2014-Aug-14 12:34N 46°47' W 071°13'10 9.9
2014-Aug-14 11:33N 46°43' W 071°26'1313.3
2014-Aug-14 10:34N 46°39' W 071°44'1413.9
2014-Aug-14 09:33N 46°34' W 072°03'1313.0
2014-Aug-14 08:33N 46°26' W 072°19'1313.0
2014-Aug-14 07:33N 46°18' W 072°34'1212.2
2014-Aug-14 06:33N 46°13' W 072°49'1313.4
2014-Aug-14 05:33N 46°04' W 073°04'1212.2
2014-Aug-14 04:34N 45°54' W 073°14'1413.9
2014-Aug-14 03:33N 45°43' W 073°26'6 6.4
2014-Aug-14 02:33N 45°37' W 073°30'0 0.0
2014-Aug-14 01:33N 45°37' W 073°30'0 0.0
2014-Aug-14 00:33N 45°37' W 073°30'0 0.0
2014-Aug-13 23:33N 45°37' W 073°30'0 0.0
2014-Aug-13 22:33N 45°37' W 073°30'0 0.0
2014-Aug-13 21:33N 45°37' W 073°30'0 0.0
2014-Aug-13 20:33N 45°37' W 073°30'0 0.0
2014-Aug-13 19:33N 45°37' W 073°30'0 0.0
2014-Aug-13 18:33N 45°37' W 073°30'0 0.0
2014-Aug-13 17:33N 45°37' W 073°30'0 0.0
2014-Aug-13 16:33N 45°37' W 073°30'0 0.0
2014-Aug-13 15:33N 45°37' W 073°30'0 0.0
2014-Aug-13 14:33N 45°37' W 073°30'0 0.0
2014-Aug-13 13:33N 45°37' W 073°30'0 0.0
2014-Aug-13 12:33N 45°37' W 073°30'5 5.2
2014-Aug-13 11:34N 45°42' W 073°27'9 9.2
2014-Aug-13 10:33N 45°49' W 073°19'9 9.2
2014-Aug-13 09:33N 45°57' W 073°13'9 8.6
2014-Aug-13 08:33N 46°04' W 073°05'10 9.8
2014-Aug-13 07:33N 46°11' W 072°55'10 9.9
2014-Aug-13 06:31N 46°16' W 072°42'7 7.5
2014-Aug-13 05:33N 46°19' W 072°33'1010.3
2014-Aug-13 04:33N 46°26' W 072°21'1110.8
2014-Aug-13 03:33N 46°33' W 072°09'1111.5
2014-Aug-13 02:33N 46°39' W 071°55'1412.5
2014-Aug-13 01:24N 46°41' W 071°34'1315.5
2014-Aug-13 00:33N 46°45' W 071°16'1211.8
2014-Aug-12 23:33N 46°51' W 071°01'1715.4
2014-Aug-12 22:26N 47°04' W 070°44'1516.4
2014-Aug-12 21:30N 47°17' W 070°32'2116.4
2014-Aug-12 20:13N 47°32' W 070°10'1014.8
2014-Aug-12 19:33N 47°39' W 070°01'1414.3
2014-Aug-12 18:34N 47°51' W 069°50'1515.2
2014-Aug-12 17:34N 48°04' W 069°37'1211.9
2014-Aug-12 16:34N 48°14' W 069°28'3313.4
2014-Aug-12 14:04N 48°36' W 068°49'713.2
2014-Aug-12 13:32N 48°40' W 068°41'1111.1
2014-Aug-12 12:33N 48°47' W 068°28'9 9.4
2014-Aug-12 11:33N 48°51' W 068°15'1312.7
2014-Aug-12 10:33N 48°58' W 067°59'1413.9
2014-Aug-12 09:33N 49°05' W 067°41'1414.0
2014-Aug-12 08:33N 49°13' W 067°23'1413.8
2014-Aug-12 07:33N 49°16' W 067°03'1413.5
2014-Aug-12 06:33N 49°20' W 066°43'1413.8
2014-Aug-12 05:34N 49°23' W 066°22'1414.2
2014-Aug-12 04:33N 49°26' W 066°01'14912.9
2014-Aug-11 17:00N 48°42' W 062°24'   080 / 121025.010.8 2.014.0 10.0
Track history (hours):
 
Tides and Currents Weather Stations Pressure Air Temp Water Temp Dewpoint Dewpoint Depression Visibility Wind Speed Wind Dir Waves Ship Positions

Algoma Mariner

Last reported at 2014-Aug-20 19:00 UTC. Time now 2014-Aug-21 06:22 UTC.
Position N 48°36' W 062°30'.

Length 225 m; draft 7.2 m.

Type: Cargo ship. MMSI: 316014050.

Wind from 320 at 10 knots

Waves 2.0 meters (7 feet)

Barometer 1018.0 mb
Air temperature 20.0 ° C
Visibility: greater than 10.8 NM
Water temperature 10.5 ° C

Date/timePositionNaut miles runAvg speedWind from/ knotsBaromVisibWave heightAir tempDewpointWater temp
2014-Aug-20 19:00N 48°36' W 062°30'14713.6 320 / 101018.010.8 2.020.0 10.5
2014-Aug-20 08:13N 49°22' W 066°03'913.8
2014-Aug-20 07:33N 49°19' W 066°17'1313.2
2014-Aug-20 06:33N 49°16' W 066°36'1313.0
2014-Aug-20 05:33N 49°12' W 066°55'1312.7
2014-Aug-20 04:33N 49°08' W 067°14'1212.3
2014-Aug-20 03:33N 49°04' W 067°31'1111.1
2014-Aug-20 02:33N 48°58' W 067°46'1111.0
2014-Aug-20 01:33N 48°53' W 068°00'1111.4
2014-Aug-20 00:33N 48°47' W 068°15'1312.5
2014-Aug-19 23:33N 48°40' W 068°31'1313.0
2014-Aug-19 22:33N 48°33' W 068°48'3612.1
2014-Aug-19 19:33N 48°11' W 069°31'1212.4
2014-Aug-19 18:33N 47°60' W 069°39'1716.7
2014-Aug-19 17:33N 47°45' W 069°52'1515.0
2014-Aug-19 16:33N 47°34' W 070°07'1312.8
2014-Aug-19 15:33N 47°26' W 070°22'1110.9
2014-Aug-19 14:33N 47°18' W 070°31'1212.5
2014-Aug-19 13:33N 47°07' W 070°42'1414.0
2014-Aug-19 12:33N 46°55' W 070°52'1514.7
2014-Aug-19 11:33N 46°49' W 071°12'1515.5
2014-Aug-19 10:33N 46°42' W 071°32'1413.9
2014-Aug-19 09:34N 46°41' W 071°52'1414.1
2014-Aug-19 08:33N 46°33' W 072°09'1313.1
2014-Aug-19 07:34N 46°24' W 072°23'1212.3
2014-Aug-19 06:33N 46°16' W 072°37'1413.9
2014-Aug-19 05:33N 46°10' W 072°55'1313.1
2014-Aug-19 04:34N 46°02' W 073°10'1313.2
2014-Aug-19 03:33N 45°50' W 073°17'0 0.1
2014-Aug-19 02:33N 45°50' W 073°17'0 0.0
2014-Aug-19 01:33N 45°50' W 073°17'0 0.0
2014-Aug-19 00:33N 45°50' W 073°17'0 0.0
2014-Aug-18 23:33N 45°50' W 073°17'0 0.0
2014-Aug-18 22:33N 45°50' W 073°17'0 0.0
2014-Aug-18 21:33N 45°50' W 073°17'0 0.0
2014-Aug-18 20:33N 45°50' W 073°17'0 0.0
2014-Aug-18 19:33N 45°50' W 073°17'0 0.0
2014-Aug-18 18:34N 45°50' W 073°17'0 0.0
2014-Aug-18 17:33N 45°50' W 073°17'0 0.0
2014-Aug-18 16:33N 45°50' W 073°17'0 0.0
2014-Aug-18 15:33N 45°50' W 073°17'0 0.0
2014-Aug-18 14:33N 45°50' W 073°17'0 0.1
2014-Aug-18 13:33N 45°50' W 073°17'6 6.3
2014-Aug-18 12:33N 45°56' W 073°13'9 9.4
2014-Aug-18 11:33N 46°04' W 073°06'9 9.4
2014-Aug-18 10:33N 46°10' W 072°56'1110.3
2014-Aug-18 09:28N 46°16' W 072°42'8 8.8
2014-Aug-18 08:33N 46°20' W 072°32'9 9.0
2014-Aug-18 07:33N 46°25' W 072°22'9 8.5
2014-Aug-18 06:33N 46°31' W 072°13'9 8.9
2014-Aug-18 05:33N 46°35' W 072°01'1010.2
2014-Aug-18 04:33N 46°40' W 071°48'1211.8
2014-Aug-18 03:33N 46°42' W 071°31'1313.6
2014-Aug-18 02:34N 46°47' W 071°13'1111.2
2014-Aug-18 01:33N 46°52' W 070°58'1414.2
2014-Aug-18 00:33N 47°03' W 070°45'7412.4
2014-Aug-17 18:33N 48°02' W 069°38'9 9.1
2014-Aug-17 17:33N 48°11' W 069°32'1110.7
2014-Aug-17 16:32N 48°20' W 069°23'2913.7
2014-Aug-17 14:23N 48°38' W 068°48'1113.2
2014-Aug-17 13:33N 48°43' W 068°34'1414.2
2014-Aug-17 12:33N 48°50' W 068°15'1414.5
2014-Aug-17 11:33N 48°58' W 067°57'1514.7
2014-Aug-17 10:33N 49°07' W 067°38'1515.5
2014-Aug-17 09:33N 49°15' W 067°18'1515.3
2014-Aug-17 08:33N 49°29' W 067°08'36 2.1
2014-Aug-16 15:31N 50°02' W 066°47'0 0.0
2014-Aug-16 14:19N 50°02' W 066°47'2 2.3
2014-Aug-16 13:30N 50°00' W 066°48'0 0.4
2014-Aug-16 12:33N 50°00' W 066°49'0 0.1
2014-Aug-16 11:33N 50°00' W 066°49'0 0.1
2014-Aug-16 10:33N 50°00' W 066°49'0 0.0
2014-Aug-16 09:33N 50°00' W 066°49'0 0.0
2014-Aug-16 08:33N 50°00' W 066°49'0 0.0
2014-Aug-16 07:30N 50°00' W 066°49'0 0.0
2014-Aug-16 06:24N 50°00' W 066°49'0 0.0
2014-Aug-16 05:33N 50°00' W 066°49'0 0.1
2014-Aug-16 04:33N 50°00' W 066°49'0 0.0
2014-Aug-16 03:33N 50°00' W 066°49'0 0.0
2014-Aug-16 02:33N 50°00' W 066°49'0 0.0
2014-Aug-16 01:33N 50°00' W 066°49'0 0.0
2014-Aug-16 00:33N 50°00' W 066°49'0 0.0
2014-Aug-15 23:33N 50°00' W 066°49'0 0.0
2014-Aug-15 22:33N 50°00' W 066°49'0 0.0
2014-Aug-15 21:33N 50°00' W 066°49'0 0.0
2014-Aug-15 20:33N 50°00' W 066°49'0 0.0
2014-Aug-15 19:33N 50°00' W 066°49'0 0.0
2014-Aug-15 18:33N 50°00' W 066°49'0 0.0
2014-Aug-15 16:27N 50°00' W 066°49'0 0.0
2014-Aug-15 15:33N 50°00' W 066°49'0 0.0
2014-Aug-15 14:33N 50°00' W 066°49'0 0.0
2014-Aug-15 12:33N 50°00' W 066°49'0 0.0
2014-Aug-15 11:33N 50°00' W 066°49'0 0.0
2014-Aug-15 10:34N 50°00' W 066°49'0 0.2
2014-Aug-15 09:33N 49°60' W 066°49'6 6.0
2014-Aug-15 08:32N 49°54' W 066°52'2211.1
2014-Aug-15 06:31N 49°33' W 067°05'1111.2
2014-Aug-15 05:32N 49°23' W 067°11'1212.4
2014-Aug-15 04:33N 49°12' W 067°18'1312.9
2014-Aug-15 03:34N 49°04' W 067°34'1413.6
2014-Aug-15 02:33N 48°57' W 067°52'1414.5
2014-Aug-15 01:33N 48°49' W 068°10'1414.5
2014-Aug-15 00:33N 48°41' W 068°29'1514.5
2014-Aug-14 23:33N 48°33' W 068°47'1413.4
2014-Aug-14 22:33N 48°26' W 069°04'2211.2
2014-Aug-14 20:33N 48°12' W 069°30'1010.3
2014-Aug-14 19:33N 48°02' W 069°37'1313.3
2014-Aug-14 18:33N 47°51' W 069°47'1615.5
2014-Aug-14 17:33N 47°39' W 070°00'1817.8
2014-Aug-14 16:31N 47°26' W 070°21'1818.4
2014-Aug-14 15:33N 47°12' W 070°36'1615.8
2014-Aug-14 14:33N 46°59' W 070°49'1212.1
2014-Aug-14 13:33N 46°51' W 071°03'8 8.0
2014-Aug-14 12:34N 46°47' W 071°13'10 9.9
2014-Aug-14 11:33N 46°43' W 071°26'1313.3
2014-Aug-14 10:34N 46°39' W 071°44'1413.9
2014-Aug-14 09:33N 46°34' W 072°03'1313.0
2014-Aug-14 08:33N 46°26' W 072°19'1313.0
2014-Aug-14 07:33N 46°18' W 072°34'1212.2
2014-Aug-14 06:33N 46°13' W 072°49'1313.4
2014-Aug-14 05:33N 46°04' W 073°04'1212.2
2014-Aug-14 04:34N 45°54' W 073°14'1413.9
2014-Aug-14 03:33N 45°43' W 073°26'6 6.4
2014-Aug-14 02:33N 45°37' W 073°30'0 0.0
2014-Aug-14 01:33N 45°37' W 073°30'0 0.0
2014-Aug-14 00:33N 45°37' W 073°30'0 0.0
2014-Aug-13 23:33N 45°37' W 073°30'0 0.0
2014-Aug-13 22:33N 45°37' W 073°30'0 0.0
2014-Aug-13 21:33N 45°37' W 073°30'0 0.0
2014-Aug-13 20:33N 45°37' W 073°30'0 0.0
2014-Aug-13 19:33N 45°37' W 073°30'0 0.0
2014-Aug-13 18:33N 45°37' W 073°30'0 0.0
2014-Aug-13 17:33N 45°37' W 073°30'0 0.0
2014-Aug-13 16:33N 45°37' W 073°30'0 0.0
2014-Aug-13 15:33N 45°37' W 073°30'0 0.0
2014-Aug-13 14:33N 45°37' W 073°30'0 0.0
2014-Aug-13 13:33N 45°37' W 073°30'0 0.0
2014-Aug-13 12:33N 45°37' W 073°30'5 5.2
2014-Aug-13 11:34N 45°42' W 073°27'9 9.2
2014-Aug-13 10:33N 45°49' W 073°19'9 9.2
2014-Aug-13 09:33N 45°57' W 073°13'9 8.6
2014-Aug-13 08:33N 46°04' W 073°05'10 9.8
2014-Aug-13 07:33N 46°11' W 072°55'10 9.9
2014-Aug-13 06:31N 46°16' W 072°42'7 7.5
2014-Aug-13 05:33N 46°19' W 072°33'1010.3
2014-Aug-13 04:33N 46°26' W 072°21'1110.8
2014-Aug-13 03:33N 46°33' W 072°09'1111.5
2014-Aug-13 02:33N 46°39' W 071°55'1412.5
2014-Aug-13 01:24N 46°41' W 071°34'1315.5
2014-Aug-13 00:33N 46°45' W 071°16'1211.8
2014-Aug-12 23:33N 46°51' W 071°01'1715.4
2014-Aug-12 22:26N 47°04' W 070°44'1516.4
2014-Aug-12 21:30N 47°17' W 070°32'2116.4
2014-Aug-12 20:13N 47°32' W 070°10'1014.8
2014-Aug-12 19:33N 47°39' W 070°01'1414.3
2014-Aug-12 18:34N 47°51' W 069°50'1515.2
2014-Aug-12 17:34N 48°04' W 069°37'1211.9
2014-Aug-12 16:34N 48°14' W 069°28'3313.4
2014-Aug-12 14:04N 48°36' W 068°49'713.2
2014-Aug-12 13:32N 48°40' W 068°41'1111.1
2014-Aug-12 12:33N 48°47' W 068°28'9 9.4
2014-Aug-12 11:33N 48°51' W 068°15'1312.7
2014-Aug-12 10:33N 48°58' W 067°59'1413.9
2014-Aug-12 09:33N 49°05' W 067°41'1414.0
2014-Aug-12 08:33N 49°13' W 067°23'1413.8
2014-Aug-12 07:33N 49°16' W 067°03'1413.5
2014-Aug-12 06:33N 49°20' W 066°43'1413.8
2014-Aug-12 05:34N 49°23' W 066°22'1414.2
2014-Aug-12 04:33N 49°26' W 066°01'14912.9
2014-Aug-11 17:00N 48°42' W 062°24'   080 / 121025.010.8 2.014.0 10.0

Dump ship's entire track history